sim
Sign-in with your pilot id or email,
or register
Callsign
Passwort

Schedule Details

Flight Number: RYR7892 (2)
Departure: Edinburgh Airport (EGPH) at 17:35
Arrival: Gothenburg Landvetter Airport (ESGG) at 19:25
Route: Ryanair Passenger Schedule. Enter filed route here before submitting Pirep.

Weather Information
Getting current METAR information for EGPH 251250Z 22017G27KT 9999 BKN030 11/05 Q0984
Getting current METAR information for ESGG 251250Z 20019KT 9000 -RA BKN008 11/10 Q0998

Schedule Frequency

Route Map